Laghouat, Algeria
Current Conditions -  °F | °C
As of 11:00 AM on Monday 22 Dec 2014 (Local Time) from DAUL Reporting Station
Scattered Clouds Scattered Clouds  
Wind Chill: 52°   Ceiling: Unl
Heat Index: 52°   Visibility: 6mi
Dew Point: 41°   Wind: 7mph
Humidity: 67%   Direction: 60°ENE
Pressure: 30.5"   Gusts: NA
Location:  33.8°N, 2.88°E
Report Text: DAUL 221000Z 06006KT 9999 FEW033 SCT080 11/05 Q1033
Loading
Personal Weather Stations






























Interactive Weather Map New forecast layout! Learn more

10-Day Weather Forecast

Advertisements
Track Severe Weather on mobile